Vingaren — OZ2131 — position and weather

sailwx.info

Track history (hours):
 
Tides and Currents Weather Stations Pressure Air Temp Water Temp Dewpoint Dewpoint Depression Visibility Wind Speed Wind Dir Waves Ship Positions

Vingaren

Last reported at 2018-Feb-23 20:00 UTC. Time now 2018-Feb-23 20:10 UTC.
Position N 58°36' E 016°13'.

Length 89 m; draft 6.4 m.

Type: Cargo ship. MMSI: 231844000.

Date/timePositionNaut miles runAvg speedWind from/ knotsBaromVisibWave heightAir tempDewpointWater temp
2018-Feb-23 20:00N 58°36' E 016°13'0 0.0
2018-Feb-23 19:30N 58°36' E 016°13'0 0.0
2018-Feb-23 19:00N 58°36' E 016°13'0 0.0
2018-Feb-23 18:30N 58°36' E 016°13'0 0.0
2018-Feb-23 18:00N 58°36' E 016°13'0 0.0
2018-Feb-23 17:30N 58°36' E 016°13'0 0.0
2018-Feb-23 17:00N 58°36' E 016°13'0 0.0
2018-Feb-23 16:30N 58°36' E 016°13'0 0.0
2018-Feb-23 16:00N 58°36' E 016°13'0 0.0
2018-Feb-23 15:30N 58°36' E 016°13'0 0.0
2018-Feb-23 15:00N 58°36' E 016°13'0 0.0
2018-Feb-23 14:30N 58°36' E 016°13'0 0.0
2018-Feb-23 14:00N 58°36' E 016°13'0 0.0
2018-Feb-23 13:30N 58°36' E 016°13'0 0.0
2018-Feb-23 13:00N 58°36' E 016°13'0 0.0
2018-Feb-23 12:30N 58°36' E 016°13'0 0.0
2018-Feb-23 12:00N 58°36' E 016°13'0 0.0
2018-Feb-23 11:30N 58°36' E 016°13'0 0.0
2018-Feb-23 11:00N 58°36' E 016°13'0 0.0
2018-Feb-23 10:30N 58°36' E 016°13'0 0.0
2018-Feb-23 10:00N 58°36' E 016°13'0 0.0
2018-Feb-23 09:29N 58°36' E 016°13'0 0.0
2018-Feb-23 08:59N 58°36' E 016°13'0 0.0
2018-Feb-23 08:29N 58°36' E 016°13'0 0.0
2018-Feb-23 07:59N 58°36' E 016°13'0 0.0
2018-Feb-23 07:29N 58°36' E 016°13'0 0.0
2018-Feb-23 06:59N 58°36' E 016°13'0 0.0
2018-Feb-23 06:26N 58°36' E 016°13'0 0.0
2018-Feb-23 05:59N 58°36' E 016°13'0 0.0
2018-Feb-23 05:29N 58°36' E 016°13'0 0.0
2018-Feb-23 04:59N 58°36' E 016°13'0 0.0
2018-Feb-23 04:29N 58°36' E 016°13'0 0.0
2018-Feb-23 03:59N 58°36' E 016°13'0 0.0
2018-Feb-23 03:29N 58°36' E 016°13'0 0.0
2018-Feb-23 02:59N 58°36' E 016°13'0 0.0
2018-Feb-23 02:29N 58°36' E 016°13'0 0.0
2018-Feb-23 01:59N 58°36' E 016°13'0 0.0
2018-Feb-23 01:29N 58°36' E 016°13'0 0.0
2018-Feb-23 00:59N 58°36' E 016°13'0 0.0
2018-Feb-23 00:29N 58°36' E 016°13'0 0.0
2018-Feb-22 23:59N 58°36' E 016°13'0 0.0
2018-Feb-22 23:29N 58°36' E 016°13'0 0.0
2018-Feb-22 22:59N 58°36' E 016°13'0 0.0
2018-Feb-22 22:29N 58°36' E 016°13'0 0.0
2018-Feb-22 21:59N 58°36' E 016°13'0 0.0
2018-Feb-22 21:30N 58°36' E 016°13'1 2.1
2018-Feb-22 21:00N 58°37' E 016°14'3 6.3
2018-Feb-22 20:30N 58°38' E 016°20'5 9.4
2018-Feb-22 20:00N 58°39' E 016°28'5 9.4
2018-Feb-22 19:30N 58°38' E 016°37'510.0
2018-Feb-22 19:00N 58°37' E 016°47'5 9.7
2018-Feb-22 18:30N 58°36' E 016°56'5 9.5
2018-Feb-22 18:00N 58°37' E 017°05'4 9.0
2018-Feb-22 17:30N 58°37' E 017°13'5 9.5
2018-Feb-22 17:00N 58°37' E 017°23'5 9.3
2018-Feb-22 16:30N 58°36' E 017°31'  
2018-Feb-20 07:58N 55°26' E 015°27'510.5
2018-Feb-20 07:30N 55°26' E 015°19'510.5
2018-Feb-20 07:00N 55°25' E 015°10'510.4
2018-Feb-20 06:30N 55°25' E 015°01'510.3
2018-Feb-20 06:00N 55°24' E 014°52'510.2
2018-Feb-20 05:29N 55°24' E 014°42'5 9.8
2018-Feb-20 05:00N 55°21' E 014°36'510.6
2018-Feb-20 04:30N 55°17' E 014°29'510.4
2018-Feb-20 04:00N 55°13' E 014°24'5 9.3
2018-Feb-20 03:30N 55°11' E 014°17'2410.3
2018-Feb-20 01:10N 55°12' E 013°35'1210.2
2018-Feb-20 00:01N 55°14' E 013°14'110.3
2018-Feb-19 23:56N 55°14' E 013°13'510.3
2018-Feb-19 23:29N 55°14' E 013°04'510.3
2018-Feb-19 22:59N 55°15' E 012°56'510.1
2018-Feb-19 22:30N 55°16' E 012°47'510.4
2018-Feb-19 22:00N 55°18' E 012°39'5 9.4
2018-Feb-19 21:30N 55°22' E 012°39'510.2
2018-Feb-19 21:00N 55°27' E 012°41'5 9.8
2018-Feb-19 20:30N 55°32' E 012°42'5 9.4
2018-Feb-19 20:00N 55°37' E 012°42'5 9.0
2018-Feb-19 19:30N 55°41' E 012°41'5 9.6
2018-Feb-19 19:00N 55°46' E 012°41'510.0
2018-Feb-19 18:30N 55°51' E 012°40'5 9.6
2018-Feb-19 18:00N 55°56' E 012°39'5 9.4
2018-Feb-19 17:30N 55°60' E 012°43'1 1.2
2018-Feb-19 16:58N 56°01' E 012°43'0 0.0
2018-Feb-19 16:28N 56°01' E 012°43'0 0.0
2018-Feb-19 15:58N 56°01' E 012°43'0 0.0
2018-Feb-19 15:28N 56°01' E 012°43'0 0.0
2018-Feb-19 14:58N 56°01' E 012°43'0 0.0
2018-Feb-19 14:28N 56°01' E 012°43'0 0.0
2018-Feb-19 13:58N 56°01' E 012°43'0 0.0
2018-Feb-19 13:28N 56°01' E 012°43'0 0.0
2018-Feb-19 12:58N 56°01' E 012°43'0 0.0
2018-Feb-19 12:28N 56°01' E 012°43'0 0.0
2018-Feb-19 11:58N 56°01' E 012°43'0 0.0
2018-Feb-19 11:28N 56°01' E 012°43'0 0.0
2018-Feb-19 10:58N 56°01' E 012°43'0 0.0
2018-Feb-19 10:28N 56°01' E 012°43'0 0.0
2018-Feb-19 09:58N 56°01' E 012°43'0 0.0
2018-Feb-19 09:28N 56°01' E 012°43'0 0.0
2018-Feb-19 08:58N 56°01' E 012°43'0 0.0
2018-Feb-19 08:25N 56°01' E 012°43'0 0.0
2018-Feb-19 07:58N 56°01' E 012°43'0 0.0
2018-Feb-19 07:28N 56°01' E 012°43'0 0.0
2018-Feb-19 06:58N 56°01' E 012°43'0 0.0
2018-Feb-19 06:28N 56°01' E 012°43'0 0.0
2018-Feb-19 05:58N 56°01' E 012°43'0 0.0
2018-Feb-19 05:28N 56°01' E 012°43'0 0.0
2018-Feb-19 04:58N 56°01' E 012°43'0 0.0
2018-Feb-19 04:28N 56°01' E 012°43'0 0.0
2018-Feb-19 03:58N 56°01' E 012°43'0 0.0
2018-Feb-19 03:28N 56°01' E 012°43'0 0.0
2018-Feb-19 02:58N 56°01' E 012°43'0 0.0
2018-Feb-19 02:28N 56°01' E 012°43'0 0.0
2018-Feb-19 01:58N 56°01' E 012°43'0 0.0
2018-Feb-19 01:28N 56°01' E 012°43'0 0.0
2018-Feb-19 00:58N 56°01' E 012°43'0 0.0
2018-Feb-19 00:28N 56°01' E 012°43'0 0.0
2018-Feb-18 23:58N 56°01' E 012°43'0 0.0
2018-Feb-18 23:28N 56°01' E 012°43'0 0.0
2018-Feb-18 22:58N 56°01' E 012°43'0 0.0
2018-Feb-18 22:28N 56°01' E 012°43'0 0.0
2018-Feb-18 21:58N 56°01' E 012°43'0 0.0
2018-Feb-18 21:28N 56°01' E 012°43'0 0.0
2018-Feb-18 20:58N 56°01' E 012°43'0 0.0
2018-Feb-18 20:28N 56°01' E 012°43'0 0.0
2018-Feb-18 19:58N 56°01' E 012°43'0 0.0
2018-Feb-18 19:28N 56°01' E 012°43'0 0.0
2018-Feb-18 18:58N 56°01' E 012°43'0 0.0
2018-Feb-18 18:28N 56°01' E 012°43'0 0.0
2018-Feb-18 17:58N 56°01' E 012°43'0 0.0
2018-Feb-18 17:28N 56°01' E 012°43'0 0.0
2018-Feb-18 16:58N 56°01' E 012°43'0 0.0
2018-Feb-18 16:28N 56°01' E 012°43'0 0.0
2018-Feb-18 15:58N 56°01' E 012°43'0 0.0
2018-Feb-18 15:28N 56°01' E 012°43'0 0.0
2018-Feb-18 14:58N 56°01' E 012°43'0 0.0
2018-Feb-18 14:28N 56°01' E 012°43'0 0.0
2018-Feb-18 13:58N 56°01' E 012°43'0 0.0
2018-Feb-18 13:28N 56°01' E 012°43'0 0.0
2018-Feb-18 12:58N 56°01' E 012°43'0 0.0
2018-Feb-18 12:28N 56°01' E 012°43'0 0.0
2018-Feb-18 11:58N 56°01' E 012°43'0 0.0
2018-Feb-18 11:28N 56°01' E 012°43'0 0.0
2018-Feb-18 11:01N 56°01' E 012°43'0 0.0
2018-Feb-18 10:31N 56°01' E 012°43'0 0.0
2018-Feb-18 10:01N 56°01' E 012°43'0 0.0
2018-Feb-18 09:30N 56°01' E 012°43'0 0.0
2018-Feb-18 09:00N 56°01' E 012°43'0 0.0
2018-Feb-18 08:30N 56°01' E 012°43'0 0.0
2018-Feb-18 08:00N 56°01' E 012°43'0 0.0
2018-Feb-18 07:30N 56°01' E 012°43'0 0.0
2018-Feb-18 07:00N 56°01' E 012°43'0 0.0
2018-Feb-18 06:30N 56°01' E 012°43'0 0.0
2018-Feb-18 06:00N 56°01' E 012°43'0 0.0
2018-Feb-18 05:30N 56°01' E 012°43'0 0.0
2018-Feb-18 05:00N 56°01' E 012°43'0 0.0
2018-Feb-18 04:30N 56°01' E 012°43'0 0.0
2018-Feb-18 04:00N 56°01' E 012°43'0 0.0
2018-Feb-18 03:30N 56°01' E 012°43'0 0.0
2018-Feb-18 03:00N 56°01' E 012°43'0 0.0
2018-Feb-18 02:30N 56°01' E 012°43'0 0.0
2018-Feb-18 02:00N 56°01' E 012°43'0 0.0
2018-Feb-18 01:30N 56°01' E 012°43'0 0.0
2018-Feb-18 01:00N 56°01' E 012°43'0 0.0
2018-Feb-18 00:30N 56°01' E 012°43'0 0.0
2018-Feb-18 00:00N 56°01' E 012°43'0 0.0
2018-Feb-17 23:30N 56°01' E 012°43'0 0.0
2018-Feb-17 23:00N 56°01' E 012°43'0 0.0
2018-Feb-17 22:30N 56°01' E 012°43'0 0.0
2018-Feb-17 22:00N 56°01' E 012°43'0 0.0
2018-Feb-17 21:30N 56°01' E 012°43'0 0.0
2018-Feb-17 21:00N 56°01' E 012°43'0 0.0
2018-Feb-17 20:30N 56°01' E 012°43'0 0.0
2018-Feb-17 20:00N 56°01' E 012°43'0 0.0
2018-Feb-17 19:30N 56°01' E 012°43'0 0.0
2018-Feb-17 19:00N 56°01' E 012°43'0 0.0
2018-Feb-17 18:30N 56°01' E 012°43'0 0.0
2018-Feb-17 18:00N 56°01' E 012°43'0 0.0
2018-Feb-17 17:30N 56°01' E 012°43'0 0.0
2018-Feb-17 17:00N 56°01' E 012°43'0 0.0
2018-Feb-17 16:30N 56°01' E 012°43'0 0.0
2018-Feb-17 16:00N 56°01' E 012°43'0 0.0
2018-Feb-17 15:30N 56°01' E 012°43'0 0.0
2018-Feb-17 15:00N 56°01' E 012°43'0 0.0
2018-Feb-17 14:30N 56°01' E 012°43'0 0.0
2018-Feb-17 14:00N 56°01' E 012°43'0 0.0
2018-Feb-17 13:30N 56°01' E 012°43'0 0.0
2018-Feb-17 13:00N 56°01' E 012°43'0 0.0
2018-Feb-17 12:30N 56°01' E 012°43'0 0.0
2018-Feb-17 12:00N 56°01' E 012°43'0 0.0
2018-Feb-17 11:30N 56°01' E 012°43'0 0.0
2018-Feb-17 10:57N 56°01' E 012°43'0 0.0
2018-Feb-17 10:30N 56°01' E 012°43'0 0.0
2018-Feb-17 10:00N 56°01' E 012°43'0 0.0
2018-Feb-17 09:30N 56°01' E 012°43'0 0.0
2018-Feb-17 09:00N 56°01' E 012°43'0 0.0
2018-Feb-17 08:30N 56°01' E 012°43'0 0.0
2018-Feb-17 08:00N 56°01' E 012°43'0 0.0
2018-Feb-17 07:30N 56°01' E 012°43'0 0.0
2018-Feb-17 07:00N 56°01' E 012°43'0 0.0
2018-Feb-17 06:30N 56°01' E 012°43'0 0.0
2018-Feb-17 05:57N 56°01' E 012°43'0 0.0
2018-Feb-17 05:30N 56°01' E 012°43'0 0.0
2018-Feb-17 05:00N 56°01' E 012°43'0 0.0
2018-Feb-17 04:30N 56°01' E 012°43'0 0.0
2018-Feb-17 04:00N 56°01' E 012°43'0 0.0
2018-Feb-17 03:30N 56°01' E 012°43'0 0.0
2018-Feb-17 03:00N 56°01' E 012°43'0 0.0
2018-Feb-17 02:30N 56°01' E 012°43'0 0.0
2018-Feb-17 02:00N 56°01' E 012°43'0 0.0
2018-Feb-17 01:30N 56°01' E 012°43'0 0.0
2018-Feb-17 01:00N 56°01' E 012°43'0 0.0
2018-Feb-17 00:29N 56°01' E 012°43'0 0.0
2018-Feb-16 23:59N 56°01' E 012°43'0 0.0
2018-Feb-16 23:29N 56°01' E 012°43'0 0.0
2018-Feb-16 22:59N 56°01' E 012°43'0 0.0
2018-Feb-16 22:29N 56°01' E 012°43'0 0.0
2018-Feb-16 21:59N 56°01' E 012°43'0 0.0
2018-Feb-16 21:29N 56°01' E 012°43'0 0.0
2018-Feb-16 20:56N 56°01' E 012°43'0 0.0
2018-Feb-16 20:29N 56°01' E 012°43'0 0.0
2018-Feb-16 19:59N 56°01' E 012°43'0 0.0
2018-Feb-16 19:29N 56°01' E 012°43'0 0.0
2018-Feb-16 18:59N 56°01' E 012°43'0 0.0
2018-Feb-16 18:29N 56°01' E 012°43'0 0.0
2018-Feb-16 17:59N 56°01' E 012°43'0 0.0
2018-Feb-16 17:29N 56°01' E 012°43'0 0.0
2018-Feb-16 16:59N 56°01' E 012°43'0 0.0
2018-Feb-16 16:29N 56°01' E 012°43'0 0.0
2018-Feb-16 15:59N 56°01' E 012°43'0 0.0
2018-Feb-16 15:29N 56°01' E 012°43'0 0.0
2018-Feb-16 14:59N 56°01' E 012°43'0 0.0
2018-Feb-16 14:29N 56°01' E 012°43'0 0.0
2018-Feb-16 13:59N 56°01' E 012°43'0 0.0
2018-Feb-16 13:29N 56°01' E 012°43'0 0.0
2018-Feb-16 12:59N 56°01' E 012°43'0 0.0
2018-Feb-16 12:29N 56°01' E 012°43'0 0.0
2018-Feb-16 11:59N 56°01' E 012°43'0 0.0
2018-Feb-16 11:29N 56°01' E 012°43'0 0.0
2018-Feb-16 10:59N 56°01' E 012°43'0 0.0
2018-Feb-16 10:29N 56°01' E 012°43'0 0.0
2018-Feb-16 09:59N 56°01' E 012°43'0 0.0
2018-Feb-16 09:29N 56°01' E 012°43'0 0.0
2018-Feb-16 08:59N 56°01' E 012°43'0 0.0
2018-Feb-16 08:29N 56°01' E 012°43'0 0.0
2018-Feb-16 07:59N 56°01' E 012°43'0 0.0
2018-Feb-16 07:29N 56°01' E 012°43'0 0.0
2018-Feb-16 06:59N 56°01' E 012°43'0 0.0
2018-Feb-16 06:29N 56°01' E 012°43'0 0.0
2018-Feb-16 05:59N 56°01' E 012°43'0 0.0
2018-Feb-16 05:29N 56°01' E 012°43'0 0.2
2018-Feb-16 05:00N 56°00' E 012°43'3 5.6
2018-Feb-16 04:30N 55°58' E 012°43'4 8.3
2018-Feb-16 04:00N 55°54' E 012°44'4 7.9
2018-Feb-16 03:30N 55°50' E 012°43'4 7.6
2018-Feb-16 03:00N 55°46' E 012°42'4 8.2
2018-Feb-16 02:30N 55°42' E 012°41'5 9.5
2018-Feb-16 02:00N 55°37' E 012°42'5 9.3
2018-Feb-16 01:30N 55°32' E 012°43'4 7.7
2018-Feb-16 01:00N 55°29' E 012°42'4 7.8
2018-Feb-16 00:30N 55°25' E 012°41'4 7.8
2018-Feb-16 00:00N 55°21' E 012°40'4 7.1
2018-Feb-15 23:30N 55°18' E 012°43'4 8.4
2018-Feb-15 23:00N 55°16' E 012°50'4 8.2
2018-Feb-15 22:30N 55°16' E 012°57'4 8.2
2018-Feb-15 22:00N 55°16' E 013°04'4 8.2
2018-Feb-15 21:30N 55°16' E 013°11'20 8.5
2018-Feb-15 19:11N 55°14' E 013°46'2 8.5
2018-Feb-15 18:59N 55°14' E 013°49'6 8.7
2018-Feb-15 18:16N 55°14' E 013°60'4 8.9
2018-Feb-15 17:47N 55°14' E 014°07'4 8.7
2018-Feb-15 17:21N 55°14' E 014°14'5 7.2
2018-Feb-15 16:40N 55°17' E 014°21'2 7.4
2018-Feb-15 16:28N 55°18' E 014°23'3 7.5
2018-Feb-15 16:00N 55°20' E 014°27'4 8.3
2018-Feb-15 15:30N 55°23' E 014°32'7 8.8
2018-Feb-15 14:45N 55°28' E 014°41'3 9.4
2018-Feb-15 14:28N 55°29' E 014°45'5 9.2
2018-Feb-15 13:58N 55°31' E 014°52'4 9.0
2018-Feb-15 13:28N 55°34' E 014°59'4 8.9
2018-Feb-15 13:00N 55°36' E 015°05'4 8.9
2018-Feb-15 12:30N 55°38' E 015°12'5 9.1
2018-Feb-15 12:00N 55°40' E 015°19'5 9.1
2018-Feb-15 11:30N 55°43' E 015°26'5 9.4
2018-Feb-15 11:00N 55°45' E 015°33'5 9.6
2018-Feb-15 10:30N 55°48' E 015°40'510.0
2018-Feb-15 10:00N 55°50' E 015°48'510.0
2018-Feb-15 09:30N 55°53' E 015°56'510.1
2018-Feb-15 09:00N 55°55' E 016°03'510.2
2018-Feb-15 08:30N 55°58' E 016°11'510.1
2018-Feb-15 08:00N 56°01' E 016°19'510.1
2018-Feb-15 07:30N 56°04' E 016°27'510.2
2018-Feb-15 07:00N 56°06' E 016°34'510.6
2018-Feb-15 06:30N 56°09' E 016°42'510.4
2018-Feb-15 06:00N 56°14' E 016°46'510.4
2018-Feb-15 05:30N 56°19' E 016°50'510.5
2018-Feb-15 05:00N 56°24' E 016°53'  
Track history (hours):
 
Tides and Currents Weather Stations Pressure Air Temp Water Temp Dewpoint Dewpoint Depression Visibility Wind Speed Wind Dir Waves Ship Positions

Vingaren

Last reported at 2018-Feb-23 20:00 UTC. Time now 2018-Feb-23 20:10 UTC.
Position N 58°36' E 016°13'.

Length 89 m; draft 6.4 m.

Type: Cargo ship. MMSI: 231844000.

Date/timePositionNaut miles runAvg speedWind from/ knotsBaromVisibWave heightAir tempDewpointWater temp
2018-Feb-23 20:00N 58°36' E 016°13'0 0.0
2018-Feb-23 19:30N 58°36' E 016°13'0 0.0
2018-Feb-23 19:00N 58°36' E 016°13'0 0.0
2018-Feb-23 18:30N 58°36' E 016°13'0 0.0
2018-Feb-23 18:00N 58°36' E 016°13'0 0.0
2018-Feb-23 17:30N 58°36' E 016°13'0 0.0
2018-Feb-23 17:00N 58°36' E 016°13'0 0.0
2018-Feb-23 16:30N 58°36' E 016°13'0 0.0
2018-Feb-23 16:00N 58°36' E 016°13'0 0.0
2018-Feb-23 15:30N 58°36' E 016°13'0 0.0
2018-Feb-23 15:00N 58°36' E 016°13'0 0.0
2018-Feb-23 14:30N 58°36' E 016°13'0 0.0
2018-Feb-23 14:00N 58°36' E 016°13'0 0.0
2018-Feb-23 13:30N 58°36' E 016°13'0 0.0
2018-Feb-23 13:00N 58°36' E 016°13'0 0.0
2018-Feb-23 12:30N 58°36' E 016°13'0 0.0
2018-Feb-23 12:00N 58°36' E 016°13'0 0.0
2018-Feb-23 11:30N 58°36' E 016°13'0 0.0
2018-Feb-23 11:00N 58°36' E 016°13'0 0.0
2018-Feb-23 10:30N 58°36' E 016°13'0 0.0
2018-Feb-23 10:00N 58°36' E 016°13'0 0.0
2018-Feb-23 09:29N 58°36' E 016°13'0 0.0
2018-Feb-23 08:59N 58°36' E 016°13'0 0.0
2018-Feb-23 08:29N 58°36' E 016°13'0 0.0
2018-Feb-23 07:59N 58°36' E 016°13'0 0.0
2018-Feb-23 07:29N 58°36' E 016°13'0 0.0
2018-Feb-23 06:59N 58°36' E 016°13'0 0.0
2018-Feb-23 06:26N 58°36' E 016°13'0 0.0
2018-Feb-23 05:59N 58°36' E 016°13'0 0.0
2018-Feb-23 05:29N 58°36' E 016°13'0 0.0
2018-Feb-23 04:59N 58°36' E 016°13'0 0.0
2018-Feb-23 04:29N 58°36' E 016°13'0 0.0
2018-Feb-23 03:59N 58°36' E 016°13'0 0.0
2018-Feb-23 03:29N 58°36' E 016°13'0 0.0
2018-Feb-23 02:59N 58°36' E 016°13'0 0.0
2018-Feb-23 02:29N 58°36' E 016°13'0 0.0
2018-Feb-23 01:59N 58°36' E 016°13'0 0.0
2018-Feb-23 01:29N 58°36' E 016°13'0 0.0
2018-Feb-23 00:59N 58°36' E 016°13'0 0.0
2018-Feb-23 00:29N 58°36' E 016°13'0 0.0
2018-Feb-22 23:59N 58°36' E 016°13'0 0.0
2018-Feb-22 23:29N 58°36' E 016°13'0 0.0
2018-Feb-22 22:59N 58°36' E 016°13'0 0.0
2018-Feb-22 22:29N 58°36' E 016°13'0 0.0
2018-Feb-22 21:59N 58°36' E 016°13'0 0.0
2018-Feb-22 21:30N 58°36' E 016°13'1 2.1
2018-Feb-22 21:00N 58°37' E 016°14'3 6.3
2018-Feb-22 20:30N 58°38' E 016°20'5 9.4
2018-Feb-22 20:00N 58°39' E 016°28'5 9.4
2018-Feb-22 19:30N 58°38' E 016°37'510.0
2018-Feb-22 19:00N 58°37' E 016°47'5 9.7
2018-Feb-22 18:30N 58°36' E 016°56'5 9.5
2018-Feb-22 18:00N 58°37' E 017°05'4 9.0
2018-Feb-22 17:30N 58°37' E 017°13'5 9.5
2018-Feb-22 17:00N 58°37' E 017°23'5 9.3
2018-Feb-22 16:30N 58°36' E 017°31'  
2018-Feb-20 07:58N 55°26' E 015°27'510.5
2018-Feb-20 07:30N 55°26' E 015°19'510.5
2018-Feb-20 07:00N 55°25' E 015°10'510.4
2018-Feb-20 06:30N 55°25' E 015°01'510.3
2018-Feb-20 06:00N 55°24' E 014°52'510.2
2018-Feb-20 05:29N 55°24' E 014°42'5 9.8
2018-Feb-20 05:00N 55°21' E 014°36'510.6
2018-Feb-20 04:30N 55°17' E 014°29'510.4
2018-Feb-20 04:00N 55°13' E 014°24'5 9.3
2018-Feb-20 03:30N 55°11' E 014°17'2410.3
2018-Feb-20 01:10N 55°12' E 013°35'1210.2
2018-Feb-20 00:01N 55°14' E 013°14'110.3
2018-Feb-19 23:56N 55°14' E 013°13'510.3
2018-Feb-19 23:29N 55°14' E 013°04'510.3
2018-Feb-19 22:59N 55°15' E 012°56'510.1
2018-Feb-19 22:30N 55°16' E 012°47'510.4
2018-Feb-19 22:00N 55°18' E 012°39'5 9.4
2018-Feb-19 21:30N 55°22' E 012°39'510.2
2018-Feb-19 21:00N 55°27' E 012°41'5 9.8
2018-Feb-19 20:30N 55°32' E 012°42'5 9.4
2018-Feb-19 20:00N 55°37' E 012°42'5 9.0
2018-Feb-19 19:30N 55°41' E 012°41'5 9.6
2018-Feb-19 19:00N 55°46' E 012°41'510.0
2018-Feb-19 18:30N 55°51' E 012°40'5 9.6
2018-Feb-19 18:00N 55°56' E 012°39'5 9.4
2018-Feb-19 17:30N 55°60' E 012°43'1 1.2
2018-Feb-19 16:58N 56°01' E 012°43'0 0.0
2018-Feb-19 16:28N 56°01' E 012°43'0 0.0
2018-Feb-19 15:58N 56°01' E 012°43'0 0.0
2018-Feb-19 15:28N 56°01' E 012°43'0 0.0
2018-Feb-19 14:58N 56°01' E 012°43'0 0.0
2018-Feb-19 14:28N 56°01' E 012°43'0 0.0
2018-Feb-19 13:58N 56°01' E 012°43'0 0.0
2018-Feb-19 13:28N 56°01' E 012°43'0 0.0
2018-Feb-19 12:58N 56°01' E 012°43'0 0.0
2018-Feb-19 12:28N 56°01' E 012°43'0 0.0
2018-Feb-19 11:58N 56°01' E 012°43'0 0.0
2018-Feb-19 11:28N 56°01' E 012°43'0 0.0
2018-Feb-19 10:58N 56°01' E 012°43'0 0.0
2018-Feb-19 10:28N 56°01' E 012°43'0 0.0
2018-Feb-19 09:58N 56°01' E 012°43'0 0.0
2018-Feb-19 09:28N 56°01' E 012°43'0 0.0
2018-Feb-19 08:58N 56°01' E 012°43'0 0.0
2018-Feb-19 08:25N 56°01' E 012°43'0 0.0
2018-Feb-19 07:58N 56°01' E 012°43'0 0.0
2018-Feb-19 07:28N 56°01' E 012°43'0 0.0
2018-Feb-19 06:58N 56°01' E 012°43'0 0.0
2018-Feb-19 06:28N 56°01' E 012°43'0 0.0
2018-Feb-19 05:58N 56°01' E 012°43'0 0.0
2018-Feb-19 05:28N 56°01' E 012°43'0 0.0
2018-Feb-19 04:58N 56°01' E 012°43'0 0.0
2018-Feb-19 04:28N 56°01' E 012°43'0 0.0
2018-Feb-19 03:58N 56°01' E 012°43'0 0.0
2018-Feb-19 03:28N 56°01' E 012°43'0 0.0
2018-Feb-19 02:58N 56°01' E 012°43'0 0.0
2018-Feb-19 02:28N 56°01' E 012°43'0 0.0
2018-Feb-19 01:58N 56°01' E 012°43'0 0.0
2018-Feb-19 01:28N 56°01' E 012°43'0 0.0
2018-Feb-19 00:58N 56°01' E 012°43'0 0.0
2018-Feb-19 00:28N 56°01' E 012°43'0 0.0
2018-Feb-18 23:58N 56°01' E 012°43'0 0.0
2018-Feb-18 23:28N 56°01' E 012°43'0 0.0
2018-Feb-18 22:58N 56°01' E 012°43'0 0.0
2018-Feb-18 22:28N 56°01' E 012°43'0 0.0
2018-Feb-18 21:58N 56°01' E 012°43'0 0.0
2018-Feb-18 21:28N 56°01' E 012°43'0 0.0
2018-Feb-18 20:58N 56°01' E 012°43'0 0.0
2018-Feb-18 20:28N 56°01' E 012°43'0 0.0
2018-Feb-18 19:58N 56°01' E 012°43'0 0.0
2018-Feb-18 19:28N 56°01' E 012°43'0 0.0
2018-Feb-18 18:58N 56°01' E 012°43'0 0.0
2018-Feb-18 18:28N 56°01' E 012°43'0 0.0
2018-Feb-18 17:58N 56°01' E 012°43'0 0.0
2018-Feb-18 17:28N 56°01' E 012°43'0 0.0
2018-Feb-18 16:58N 56°01' E 012°43'0 0.0
2018-Feb-18 16:28N 56°01' E 012°43'0 0.0
2018-Feb-18 15:58N 56°01' E 012°43'0 0.0
2018-Feb-18 15:28N 56°01' E 012°43'0 0.0
2018-Feb-18 14:58N 56°01' E 012°43'0 0.0
2018-Feb-18 14:28N 56°01' E 012°43'0 0.0
2018-Feb-18 13:58N 56°01' E 012°43'0 0.0
2018-Feb-18 13:28N 56°01' E 012°43'0 0.0
2018-Feb-18 12:58N 56°01' E 012°43'0 0.0
2018-Feb-18 12:28N 56°01' E 012°43'0 0.0
2018-Feb-18 11:58N 56°01' E 012°43'0 0.0
2018-Feb-18 11:28N 56°01' E 012°43'0 0.0
2018-Feb-18 11:01N 56°01' E 012°43'0 0.0
2018-Feb-18 10:31N 56°01' E 012°43'0 0.0
2018-Feb-18 10:01N 56°01' E 012°43'0 0.0
2018-Feb-18 09:30N 56°01' E 012°43'0 0.0
2018-Feb-18 09:00N 56°01' E 012°43'0 0.0
2018-Feb-18 08:30N 56°01' E 012°43'0 0.0
2018-Feb-18 08:00N 56°01' E 012°43'0 0.0
2018-Feb-18 07:30N 56°01' E 012°43'0 0.0
2018-Feb-18 07:00N 56°01' E 012°43'0 0.0
2018-Feb-18 06:30N 56°01' E 012°43'0 0.0
2018-Feb-18 06:00N 56°01' E 012°43'0 0.0
2018-Feb-18 05:30N 56°01' E 012°43'0 0.0
2018-Feb-18 05:00N 56°01' E 012°43'0 0.0
2018-Feb-18 04:30N 56°01' E 012°43'0 0.0
2018-Feb-18 04:00N 56°01' E 012°43'0 0.0
2018-Feb-18 03:30N 56°01' E 012°43'0 0.0
2018-Feb-18 03:00N 56°01' E 012°43'0 0.0
2018-Feb-18 02:30N 56°01' E 012°43'0 0.0
2018-Feb-18 02:00N 56°01' E 012°43'0 0.0
2018-Feb-18 01:30N 56°01' E 012°43'0 0.0
2018-Feb-18 01:00N 56°01' E 012°43'0 0.0
2018-Feb-18 00:30N 56°01' E 012°43'0 0.0
2018-Feb-18 00:00N 56°01' E 012°43'0 0.0
2018-Feb-17 23:30N 56°01' E 012°43'0 0.0
2018-Feb-17 23:00N 56°01' E 012°43'0 0.0
2018-Feb-17 22:30N 56°01' E 012°43'0 0.0
2018-Feb-17 22:00N 56°01' E 012°43'0 0.0
2018-Feb-17 21:30N 56°01' E 012°43'0 0.0
2018-Feb-17 21:00N 56°01' E 012°43'0 0.0
2018-Feb-17 20:30N 56°01' E 012°43'0 0.0
2018-Feb-17 20:00N 56°01' E 012°43'0 0.0
2018-Feb-17 19:30N 56°01' E 012°43'0 0.0
2018-Feb-17 19:00N 56°01' E 012°43'0 0.0
2018-Feb-17 18:30N 56°01' E 012°43'0 0.0
2018-Feb-17 18:00N 56°01' E 012°43'0 0.0
2018-Feb-17 17:30N 56°01' E 012°43'0 0.0
2018-Feb-17 17:00N 56°01' E 012°43'0 0.0
2018-Feb-17 16:30N 56°01' E 012°43'0 0.0
2018-Feb-17 16:00N 56°01' E 012°43'0 0.0
2018-Feb-17 15:30N 56°01' E 012°43'0 0.0
2018-Feb-17 15:00N 56°01' E 012°43'0 0.0
2018-Feb-17 14:30N 56°01' E 012°43'0 0.0
2018-Feb-17 14:00N 56°01' E 012°43'0 0.0
2018-Feb-17 13:30N 56°01' E 012°43'0 0.0
2018-Feb-17 13:00N 56°01' E 012°43'0 0.0
2018-Feb-17 12:30N 56°01' E 012°43'0 0.0
2018-Feb-17 12:00N 56°01' E 012°43'0 0.0
2018-Feb-17 11:30N 56°01' E 012°43'0 0.0
2018-Feb-17 10:57N 56°01' E 012°43'0 0.0
2018-Feb-17 10:30N 56°01' E 012°43'0 0.0
2018-Feb-17 10:00N 56°01' E 012°43'0 0.0
2018-Feb-17 09:30N 56°01' E 012°43'0 0.0
2018-Feb-17 09:00N 56°01' E 012°43'0 0.0
2018-Feb-17 08:30N 56°01' E 012°43'0 0.0
2018-Feb-17 08:00N 56°01' E 012°43'0 0.0
2018-Feb-17 07:30N 56°01' E 012°43'0 0.0
2018-Feb-17 07:00N 56°01' E 012°43'0 0.0
2018-Feb-17 06:30N 56°01' E 012°43'0 0.0
2018-Feb-17 05:57N 56°01' E 012°43'0 0.0
2018-Feb-17 05:30N 56°01' E 012°43'0 0.0
2018-Feb-17 05:00N 56°01' E 012°43'0 0.0
2018-Feb-17 04:30N 56°01' E 012°43'0 0.0
2018-Feb-17 04:00N 56°01' E 012°43'0 0.0
2018-Feb-17 03:30N 56°01' E 012°43'0 0.0
2018-Feb-17 03:00N 56°01' E 012°43'0 0.0
2018-Feb-17 02:30N 56°01' E 012°43'0 0.0
2018-Feb-17 02:00N 56°01' E 012°43'0 0.0
2018-Feb-17 01:30N 56°01' E 012°43'0 0.0
2018-Feb-17 01:00N 56°01' E 012°43'0 0.0
2018-Feb-17 00:29N 56°01' E 012°43'0 0.0
2018-Feb-16 23:59N 56°01' E 012°43'0 0.0
2018-Feb-16 23:29N 56°01' E 012°43'0 0.0
2018-Feb-16 22:59N 56°01' E 012°43'0 0.0
2018-Feb-16 22:29N 56°01' E 012°43'0 0.0
2018-Feb-16 21:59N 56°01' E 012°43'0 0.0
2018-Feb-16 21:29N 56°01' E 012°43'0 0.0
2018-Feb-16 20:56N 56°01' E 012°43'0 0.0
2018-Feb-16 20:29N 56°01' E 012°43'0 0.0
2018-Feb-16 19:59N 56°01' E 012°43'0 0.0
2018-Feb-16 19:29N 56°01' E 012°43'0 0.0
2018-Feb-16 18:59N 56°01' E 012°43'0 0.0
2018-Feb-16 18:29N 56°01' E 012°43'0 0.0
2018-Feb-16 17:59N 56°01' E 012°43'0 0.0
2018-Feb-16 17:29N 56°01' E 012°43'0 0.0
2018-Feb-16 16:59N 56°01' E 012°43'0 0.0
2018-Feb-16 16:29N 56°01' E 012°43'0 0.0
2018-Feb-16 15:59N 56°01' E 012°43'0 0.0
2018-Feb-16 15:29N 56°01' E 012°43'0 0.0
2018-Feb-16 14:59N 56°01' E 012°43'0 0.0
2018-Feb-16 14:29N 56°01' E 012°43'0 0.0
2018-Feb-16 13:59N 56°01' E 012°43'0 0.0
2018-Feb-16 13:29N 56°01' E 012°43'0 0.0
2018-Feb-16 12:59N 56°01' E 012°43'0 0.0
2018-Feb-16 12:29N 56°01' E 012°43'0 0.0
2018-Feb-16 11:59N 56°01' E 012°43'0 0.0
2018-Feb-16 11:29N 56°01' E 012°43'0 0.0
2018-Feb-16 10:59N 56°01' E 012°43'0 0.0
2018-Feb-16 10:29N 56°01' E 012°43'0 0.0
2018-Feb-16 09:59N 56°01' E 012°43'0 0.0
2018-Feb-16 09:29N 56°01' E 012°43'0 0.0
2018-Feb-16 08:59N 56°01' E 012°43'0 0.0
2018-Feb-16 08:29N 56°01' E 012°43'0 0.0
2018-Feb-16 07:59N 56°01' E 012°43'0 0.0
2018-Feb-16 07:29N 56°01' E 012°43'0 0.0
2018-Feb-16 06:59N 56°01' E 012°43'0 0.0
2018-Feb-16 06:29N 56°01' E 012°43'0 0.0
2018-Feb-16 05:59N 56°01' E 012°43'0 0.0
2018-Feb-16 05:29N 56°01' E 012°43'0 0.2
2018-Feb-16 05:00N 56°00' E 012°43'3 5.6
2018-Feb-16 04:30N 55°58' E 012°43'4 8.3
2018-Feb-16 04:00N 55°54' E 012°44'4 7.9
2018-Feb-16 03:30N 55°50' E 012°43'4 7.6
2018-Feb-16 03:00N 55°46' E 012°42'4 8.2
2018-Feb-16 02:30N 55°42' E 012°41'5 9.5
2018-Feb-16 02:00N 55°37' E 012°42'5 9.3
2018-Feb-16 01:30N 55°32' E 012°43'4 7.7
2018-Feb-16 01:00N 55°29' E 012°42'4 7.8
2018-Feb-16 00:30N 55°25' E 012°41'4 7.8
2018-Feb-16 00:00N 55°21' E 012°40'4 7.1
2018-Feb-15 23:30N 55°18' E 012°43'4 8.4
2018-Feb-15 23:00N 55°16' E 012°50'4 8.2
2018-Feb-15 22:30N 55°16' E 012°57'4 8.2
2018-Feb-15 22:00N 55°16' E 013°04'4 8.2
2018-Feb-15 21:30N 55°16' E 013°11'20 8.5
2018-Feb-15 19:11N 55°14' E 013°46'2 8.5
2018-Feb-15 18:59N 55°14' E 013°49'6 8.7
2018-Feb-15 18:16N 55°14' E 013°60'4 8.9
2018-Feb-15 17:47N 55°14' E 014°07'4 8.7
2018-Feb-15 17:21N 55°14' E 014°14'5 7.2
2018-Feb-15 16:40N 55°17' E 014°21'2 7.4
2018-Feb-15 16:28N 55°18' E 014°23'3 7.5
2018-Feb-15 16:00N 55°20' E 014°27'4 8.3
2018-Feb-15 15:30N 55°23' E 014°32'7 8.8
2018-Feb-15 14:45N 55°28' E 014°41'3 9.4
2018-Feb-15 14:28N 55°29' E 014°45'5 9.2
2018-Feb-15 13:58N 55°31' E 014°52'4 9.0
2018-Feb-15 13:28N 55°34' E 014°59'4 8.9
2018-Feb-15 13:00N 55°36' E 015°05'4 8.9
2018-Feb-15 12:30N 55°38' E 015°12'5 9.1
2018-Feb-15 12:00N 55°40' E 015°19'5 9.1
2018-Feb-15 11:30N 55°43' E 015°26'5 9.4
2018-Feb-15 11:00N 55°45' E 015°33'5 9.6
2018-Feb-15 10:30N 55°48' E 015°40'510.0
2018-Feb-15 10:00N 55°50' E 015°48'510.0
2018-Feb-15 09:30N 55°53' E 015°56'510.1
2018-Feb-15 09:00N 55°55' E 016°03'510.2
2018-Feb-15 08:30N 55°58' E 016°11'510.1
2018-Feb-15 08:00N 56°01' E 016°19'510.1
2018-Feb-15 07:30N 56°04' E 016°27'510.2
2018-Feb-15 07:00N 56°06' E 016°34'510.6
2018-Feb-15 06:30N 56°09' E 016°42'510.4
2018-Feb-15 06:00N 56°14' E 016°46'510.4
2018-Feb-15 05:30N 56°19' E 016°50'510.5
2018-Feb-15 05:00N 56°24' E 016°53'  

Dump ship's entire track history